Accueil
METAR-TAF:

METAR-TAF

Aéroports :

Ingolstadt, Allemagne

latitude: 48-43N, longitude: 011-32E, altitude: 367 m

Observation

Le bulletin a été fait il y a 24 minutes, à 05:20 UTC
Vent 3 kt de est
Température 10°C
Humidité 82%
Pression 1018 hPa
Visibilité 10 km ou plus
Quelques nuages à une hauteur de 1200 ft
Nuages épars à une hauteur de 3000 ft
Nuages fragmentés à une hauteur de 4000 ft

METAR: ETSI 200520Z 08003KT 9999 FEW012 SCT030 BKN040 10/07 Q1018 BLU BLU

Heure: 07:44 (05:44 UTC)

Prévision

Le bulletin a été fait il y a 1 heure et 29 minutes, à 04:15 UTC
Prévision valable du 20 à 05 UTC au 20 à 14 UTC
Vent 5 kt de nord/nord-est
Visibilité 10 km ou plus
Quelques nuages à une hauteur de 2000 ft
Nuages fragmentés à une hauteur de 4000 ft

TAF: ETSI 200415Z 2005/2014 03005KT 9999 NSW FEW020 BKN040 BY ETGL

Observations et prévisions météorologiques de plus de 4000 aéroports (messages METAR et TAF).

Les stations disponibles sont représentées par des disques jaunes et rouges sur la carte.

Passer la souris dessus pour voir le nom de la station.

Cliquer dessus pour voir les observations et prévisions météorologiques.

Pour changer de carte: cliquez sur les boutons verts avec une croix noire pour zoomer, sur le bouton vert avec un tiret pour effectuer un zoom arrière, ou sur les flèches vertes pour les cartes adjacentes.


METAR-TAF: